createdAt,value
2018-09-13T00:01:06.058Z,13.70
2018-09-13T00:03:34.569Z,13.70
2018-09-13T00:06:03.673Z,13.60
2018-09-13T00:08:32.082Z,13.60
2018-09-13T00:11:01.728Z,13.60
2018-09-13T00:13:30.182Z,13.60
2018-09-13T00:15:58.591Z,13.60
2018-09-13T00:18:26.996Z,13.60
2018-09-13T00:20:55.433Z,13.60
2018-09-13T00:23:23.877Z,13.60
2018-09-13T00:25:52.442Z,13.60
2018-09-13T00:28:20.943Z,13.50
2018-09-13T00:30:49.609Z,13.50
2018-09-13T00:33:18.180Z,13.50
2018-09-13T00:35:46.614Z,13.50
2018-09-13T00:38:15.058Z,13.50
2018-09-13T00:40:43.620Z,13.50
2018-09-13T00:43:12.186Z,13.40
2018-09-13T00:45:41.434Z,13.40
2018-09-13T00:48:09.849Z,13.40
2018-09-13T00:50:38.366Z,13.40
2018-09-13T00:53:07.080Z,13.30
2018-09-13T00:55:35.715Z,13.30
2018-09-13T00:58:04.181Z,13.30
2018-09-13T01:00:32.648Z,13.30
2018-09-13T01:03:01.205Z,13.30
2018-09-13T01:05:29.762Z,13.30
2018-09-13T01:07:58.202Z,13.30
2018-09-13T01:10:26.631Z,13.30
2018-09-13T01:12:55.068Z,13.30
2018-09-13T01:15:23.559Z,13.30
2018-09-13T01:17:52.054Z,13.30
2018-09-13T01:20:20.523Z,13.20
2018-09-13T01:22:48.914Z,13.20
2018-09-13T01:25:17.302Z,13.20
2018-09-13T01:27:45.688Z,13.20
2018-09-13T01:30:14.117Z,13.20
2018-09-13T01:32:42.629Z,13.20
2018-09-13T01:35:11.284Z,13.20
2018-09-13T01:37:39.715Z,13.20
2018-09-13T01:40:08.224Z,13.20
2018-09-13T01:42:36.687Z,13.20
2018-09-13T01:45:05.206Z,13.20
2018-09-13T01:47:33.566Z,13.20
2018-09-13T01:50:01.962Z,13.10
2018-09-13T01:52:30.438Z,13.10
2018-09-13T01:54:58.920Z,13.10
2018-09-13T01:57:27.232Z,13.10
2018-09-13T01:59:55.835Z,13.10
2018-09-13T02:02:24.641Z,13.10
2018-09-13T02:04:53.097Z,13.10
2018-09-13T02:07:21.481Z,13.10
2018-09-13T02:09:49.852Z,13.10
2018-09-13T02:12:18.272Z,13.10
2018-09-13T02:14:47.478Z,13.10
2018-09-13T02:17:15.909Z,13.10
2018-09-13T02:19:44.357Z,13.10
2018-09-13T02:22:12.750Z,13.10
2018-09-13T02:24:41.552Z,13.10
2018-09-13T02:27:09.901Z,13.10
2018-09-13T02:29:38.379Z,13.10
2018-09-13T02:32:06.988Z,13.10
2018-09-13T02:34:35.577Z,13.00
2018-09-13T02:37:03.949Z,13.00
2018-09-13T02:39:38.402Z,13.00
2018-09-13T02:42:07.240Z,13.00
2018-09-13T02:44:35.626Z,13.00
2018-09-13T02:47:04.129Z,13.00
2018-09-13T02:49:32.520Z,13.00
2018-09-13T02:52:01.224Z,13.00
2018-09-13T02:54:29.686Z,13.00
2018-09-13T02:56:58.065Z,12.90
2018-09-13T02:59:26.572Z,12.90
2018-09-13T03:01:54.937Z,12.90
2018-09-13T03:04:23.379Z,12.90
2018-09-13T03:06:51.778Z,12.90
2018-09-13T03:09:20.209Z,12.90
2018-09-13T03:11:48.585Z,12.90
2018-09-13T03:14:17.029Z,12.90
2018-09-13T03:16:45.409Z,12.90
2018-09-13T03:19:13.791Z,12.90
2018-09-13T03:21:42.199Z,12.90
2018-09-13T03:24:10.622Z,12.90
2018-09-13T03:26:39.054Z,12.90
2018-09-13T03:29:07.481Z,12.90
2018-09-13T03:31:35.875Z,12.90
2018-09-13T03:34:04.513Z,13.00
2018-09-13T03:36:32.903Z,13.00
2018-09-13T03:39:01.302Z,13.00
2018-09-13T03:41:29.704Z,13.00
2018-09-13T03:43:58.095Z,12.90
2018-09-13T03:46:26.504Z,13.00
2018-09-13T03:48:54.884Z,12.90
2018-09-13T03:51:23.263Z,12.90
2018-09-13T03:53:51.738Z,12.90
2018-09-13T03:56:20.141Z,12.90
2018-09-13T03:58:48.538Z,13.00
2018-09-13T04:01:17.023Z,12.90
2018-09-13T04:03:45.459Z,13.00
2018-09-13T04:06:13.840Z,12.90
2018-09-13T04:08:42.259Z,12.90
2018-09-13T04:11:17.161Z,12.90
2018-09-13T04:13:45.591Z,12.90
2018-09-13T04:16:13.966Z,12.90
2018-09-13T04:18:44.402Z,13.00
2018-09-13T04:21:12.705Z,13.00
2018-09-13T04:23:41.151Z,12.90
2018-09-13T04:26:09.609Z,12.90
2018-09-13T04:28:38.168Z,12.90
2018-09-13T04:31:06.607Z,12.90
2018-09-13T04:33:35.005Z,12.90
2018-09-13T04:36:03.569Z,12.90
2018-09-13T04:38:33.353Z,12.90
2018-09-13T04:41:01.830Z,12.90
2018-09-13T04:43:30.301Z,12.90
2018-09-13T04:45:58.735Z,12.80
2018-09-13T04:48:27.113Z,12.80
2018-09-13T04:50:55.572Z,12.80
2018-09-13T04:53:23.982Z,12.80
2018-09-13T04:55:52.738Z,12.80
2018-09-13T04:58:21.146Z,12.80
2018-09-13T05:00:57.651Z,12.80
2018-09-13T05:03:26.264Z,12.80
2018-09-13T05:05:56.596Z,12.80
2018-09-13T05:08:25.318Z,12.80
2018-09-13T05:10:53.666Z,12.80
2018-09-13T05:13:22.040Z,12.80
2018-09-13T05:15:52.478Z,12.80
2018-09-13T05:18:20.854Z,12.80
2018-09-13T05:20:49.225Z,12.80
2018-09-13T05:23:17.532Z,12.80
2018-09-13T05:25:45.945Z,12.80
2018-09-13T05:28:14.693Z,12.80
2018-09-13T05:30:43.033Z,12.80
2018-09-13T05:33:11.400Z,12.80
2018-09-13T05:35:39.709Z,12.80
2018-09-13T05:38:08.073Z,12.80
2018-09-13T05:40:36.482Z,12.90
2018-09-13T05:43:04.884Z,12.90
2018-09-13T05:45:33.236Z,12.90
2018-09-13T05:48:01.597Z,12.90
2018-09-13T05:50:29.907Z,12.90
2018-09-13T05:52:58.268Z,12.90
2018-09-13T05:55:26.806Z,12.90
2018-09-13T05:57:55.289Z,12.90
2018-09-13T06:00:23.645Z,12.90
2018-09-13T06:02:52.000Z,12.90
2018-09-13T06:05:20.356Z,12.90
2018-09-13T06:07:48.811Z,12.90
2018-09-13T06:10:17.347Z,12.90
2018-09-13T06:12:45.901Z,12.90
2018-09-13T06:15:14.285Z,12.90
2018-09-13T06:17:42.959Z,13.00
2018-09-13T06:20:11.409Z,13.00
2018-09-13T06:22:39.855Z,13.00
2018-09-13T06:25:08.296Z,13.00
2018-09-13T06:27:36.661Z,13.00
2018-09-13T06:30:05.088Z,13.00
2018-09-13T06:32:33.529Z,13.00
2018-09-13T06:35:01.922Z,13.00
2018-09-13T06:37:30.307Z,13.00
2018-09-13T06:39:58.725Z,13.00
2018-09-13T06:42:27.155Z,13.00
2018-09-13T06:44:55.507Z,13.00
2018-09-13T06:47:23.905Z,13.00
2018-09-13T06:49:52.409Z,13.00
2018-09-13T06:52:20.848Z,13.00
2018-09-13T06:54:49.338Z,13.00
2018-09-13T06:57:17.802Z,13.00
2018-09-13T06:59:46.270Z,13.10
2018-09-13T07:02:14.799Z,13.10
2018-09-13T07:04:43.210Z,13.10
2018-09-13T07:07:11.774Z,13.10
2018-09-13T07:09:40.245Z,13.10
2018-09-13T07:12:08.721Z,13.10
2018-09-13T07:14:37.264Z,13.10
2018-09-13T07:17:05.788Z,13.10
2018-09-13T07:19:34.348Z,13.10
2018-09-13T07:22:03.947Z,13.20
2018-09-13T07:24:32.511Z,13.20
2018-09-13T07:27:00.993Z,13.20
2018-09-13T07:29:29.370Z,13.30
2018-09-13T07:31:57.832Z,13.30
2018-09-13T07:34:26.192Z,13.30
2018-09-13T07:36:54.598Z,13.30
2018-09-13T07:39:22.929Z,13.30
2018-09-13T07:41:51.261Z,13.40
2018-09-13T07:44:19.564Z,13.40
2018-09-13T07:46:47.880Z,13.50
2018-09-13T07:49:16.792Z,13.50
2018-09-13T07:51:45.143Z,13.60
2018-09-13T07:54:13.483Z,13.60
2018-09-13T07:56:42.596Z,13.60
2018-09-13T07:59:10.934Z,13.50
2018-09-13T08:01:39.310Z,13.50
2018-09-13T08:04:20.819Z,13.50
2018-09-13T08:06:49.296Z,13.50
2018-09-13T08:09:17.643Z,13.60
2018-09-13T08:11:45.983Z,13.60
2018-09-13T08:14:14.386Z,13.60
2018-09-13T08:16:43.614Z,13.70
2018-09-13T08:19:11.960Z,13.70
2018-09-13T08:21:40.390Z,13.70
2018-09-13T08:24:08.646Z,13.70
2018-09-13T08:26:37.027Z,13.60
2018-09-13T08:29:05.452Z,13.70
2018-09-13T08:31:33.745Z,13.70
2018-09-13T08:34:02.125Z,13.70
2018-09-13T08:36:30.473Z,13.70
2018-09-13T08:39:11.333Z,13.80
2018-09-13T08:41:39.849Z,13.80
2018-09-13T08:44:08.213Z,13.80
2018-09-13T08:46:36.508Z,13.80
2018-09-13T08:49:04.885Z,13.80
2018-09-13T08:51:33.243Z,13.90
2018-09-13T08:54:01.566Z,13.90
2018-09-13T08:56:29.930Z,13.90
2018-09-13T08:58:59.518Z,14.00
2018-09-13T09:01:28.905Z,14.10
2018-09-13T09:03:59.765Z,14.20
2018-09-13T09:06:28.273Z,14.20
2018-09-13T09:08:57.358Z,14.20
2018-09-13T09:11:25.697Z,14.30
2018-09-13T09:13:54.032Z,14.30
2018-09-13T09:16:22.460Z,14.40
2018-09-13T09:18:51.781Z,14.40
2018-09-13T09:21:20.176Z,14.40
2018-09-13T09:23:48.524Z,14.40
2018-09-13T09:26:16.845Z,14.40
2018-09-13T09:28:45.281Z,14.50
2018-09-13T09:31:13.562Z,14.60
2018-09-13T09:33:42.028Z,14.70
2018-09-13T09:36:10.535Z,14.70
2018-09-13T09:38:38.913Z,14.80
2018-09-13T09:41:07.403Z,14.80
2018-09-13T09:43:35.992Z,14.90
2018-09-13T09:46:04.477Z,14.90
2018-09-13T09:48:39.358Z,14.90
2018-09-13T09:51:07.820Z,15.00
2018-09-13T09:53:36.378Z,15.00
2018-09-13T09:56:06.620Z,15.10
2018-09-13T09:58:35.436Z,15.10
2018-09-13T10:01:09.448Z,15.20
2018-09-13T10:03:38.105Z,15.10
2018-09-13T10:06:06.512Z,15.10
2018-09-13T10:08:34.830Z,15.00
2018-09-13T10:11:03.187Z,15.00
2018-09-13T10:13:31.496Z,15.00
2018-09-13T10:16:06.003Z,15.00
2018-09-13T10:18:39.665Z,15.00
2018-09-13T10:21:14.243Z,15.00
2018-09-13T10:23:48.696Z,15.10
2018-09-13T10:26:22.316Z,15.20
2018-09-13T10:28:56.158Z,15.30
2018-09-13T10:31:29.826Z,15.40
2018-09-13T10:34:03.475Z,15.70
2018-09-13T10:36:37.215Z,15.90
2018-09-13T10:39:13.472Z,16.20
2018-09-13T10:41:47.546Z,16.20
2018-09-13T10:44:21.306Z,16.10
2018-09-13T10:46:54.948Z,16.10
2018-09-13T10:49:28.596Z,16.00
2018-09-13T10:52:03.186Z,16.00
2018-09-13T10:54:44.253Z,16.20
2018-09-13T10:57:17.790Z,16.50
2018-09-13T10:59:47.201Z,16.50
2018-09-13T11:02:15.562Z,16.50
2018-09-13T11:04:43.958Z,16.50
2018-09-13T11:07:12.598Z,16.50
2018-09-13T11:09:41.041Z,16.50
2018-09-13T11:12:09.559Z,16.50
2018-09-13T11:14:52.184Z,16.40
2018-09-13T11:17:22.357Z,16.40
2018-09-13T11:19:50.741Z,16.40
2018-09-13T11:22:19.090Z,16.40
2018-09-13T11:24:47.477Z,16.50
2018-09-13T11:27:15.908Z,16.40
2018-09-13T11:29:44.650Z,16.10
2018-09-13T11:32:13.531Z,15.90
2018-09-13T11:34:42.432Z,15.90
2018-09-13T11:37:10.767Z,16.00
2018-09-13T11:39:39.157Z,16.00
2018-09-13T11:42:07.444Z,16.00
2018-09-13T11:44:36.661Z,16.20
2018-09-13T11:47:05.379Z,16.60
2018-09-13T11:49:33.664Z,17.00
2018-09-13T11:52:01.987Z,17.30
2018-09-13T11:54:30.316Z,17.20
2018-09-13T11:56:58.813Z,17.20
2018-09-13T11:59:27.121Z,16.90
2018-09-13T12:01:55.498Z,16.70
2018-09-13T12:04:23.756Z,16.50
2018-09-13T12:06:52.011Z,16.20
2018-09-13T12:09:20.397Z,16.20
2018-09-13T12:11:48.678Z,16.30
2018-09-13T12:14:17.014Z,16.30
2018-09-13T12:16:45.334Z,16.30
2018-09-13T12:19:13.725Z,16.40
2018-09-13T12:21:42.069Z,16.30
2018-09-13T12:24:10.402Z,16.40
2018-09-13T12:26:38.723Z,16.40
2018-09-13T12:29:07.056Z,16.40
2018-09-13T12:31:35.384Z,16.50
2018-09-13T12:34:03.699Z,16.70
2018-09-13T12:36:32.111Z,16.90
2018-09-13T12:39:00.515Z,17.10
2018-09-13T12:41:28.956Z,17.20
2018-09-13T12:43:57.276Z,17.30
2018-09-13T12:46:25.677Z,17.40
2018-09-13T12:48:53.987Z,17.40
2018-09-13T12:51:22.330Z,17.60
2018-09-13T12:53:50.672Z,17.70
2018-09-13T12:56:19.152Z,17.70
2018-09-13T12:58:48.784Z,17.90
2018-09-13T13:01:17.110Z,18.00
2018-09-13T13:03:45.432Z,18.00
2018-09-13T13:06:13.890Z,18.20
2018-09-13T13:08:42.226Z,18.30
2018-09-13T13:11:10.604Z,18.50
2018-09-13T13:13:39.324Z,18.60
2018-09-13T13:16:07.673Z,19.00
2018-09-13T13:18:36.011Z,19.40
2018-09-13T13:21:04.573Z,19.90
2018-09-13T13:23:32.915Z,20.30
2018-09-13T13:26:01.244Z,20.70
2018-09-13T13:28:29.578Z,20.80
2018-09-13T13:30:57.913Z,20.50
2018-09-13T13:33:26.285Z,20.60
2018-09-13T13:35:54.634Z,20.70
2018-09-13T13:38:22.976Z,20.80
2018-09-13T13:40:51.303Z,20.90
2018-09-13T13:43:19.626Z,21.00
2018-09-13T13:45:48.004Z,21.20
2018-09-13T13:48:16.420Z,21.40
2018-09-13T13:50:44.810Z,21.40
2018-09-13T13:53:13.349Z,21.50
2018-09-13T13:55:41.710Z,21.90
2018-09-13T13:58:10.047Z,21.40
2018-09-13T14:00:38.360Z,21.20
2018-09-13T14:03:06.744Z,20.80
2018-09-13T14:05:35.080Z,20.40
2018-09-13T14:08:03.503Z,20.20
2018-09-13T14:10:31.827Z,20.30
2018-09-13T14:13:00.243Z,20.50
2018-09-13T14:15:28.606Z,20.60
2018-09-13T14:17:56.930Z,20.80
2018-09-13T14:20:25.336Z,21.00
2018-09-13T14:22:53.590Z,20.40
2018-09-13T14:25:21.997Z,20.30
2018-09-13T14:27:50.436Z,19.90
2018-09-13T14:30:18.772Z,19.70
2018-09-13T14:32:47.118Z,19.60
2018-09-13T14:35:15.428Z,19.60
2018-09-13T14:37:43.708Z,19.50
2018-09-13T14:40:13.472Z,19.60
2018-09-13T14:42:41.861Z,19.70
2018-09-13T14:45:10.183Z,19.70
2018-09-13T14:47:38.577Z,19.70
2018-09-13T14:50:06.973Z,19.70
2018-09-13T14:52:35.281Z,19.30
2018-09-13T14:55:03.969Z,18.80
2018-09-13T14:57:32.265Z,18.90
2018-09-13T15:00:00.571Z,19.10
2018-09-13T15:02:28.918Z,19.30
2018-09-13T15:04:57.295Z,19.30
2018-09-13T15:07:25.661Z,19.50
2018-09-13T15:09:53.947Z,19.80
2018-09-13T15:12:22.246Z,20.20
2018-09-13T15:14:50.600Z,20.70
2018-09-13T15:17:18.970Z,20.70
2018-09-13T15:19:47.334Z,20.90
2018-09-13T15:22:15.997Z,20.90
2018-09-13T15:24:44.434Z,20.60
2018-09-13T15:27:19.386Z,20.20
2018-09-13T15:29:47.985Z,19.90
2018-09-13T15:32:16.283Z,19.50
2018-09-13T15:34:44.633Z,19.30
2018-09-13T15:37:12.960Z,18.90
2018-09-13T15:39:41.436Z,18.50
2018-09-13T15:42:14.669Z,18.30
2018-09-13T15:44:43.755Z,18.30
2018-09-13T15:47:17.468Z,18.20
2018-09-13T15:52:53.719Z,17.80
2018-09-13T15:55:23.034Z,17.60
2018-09-13T15:57:51.464Z,17.60
2018-09-13T16:00:19.904Z,17.60
2018-09-13T16:02:48.274Z,17.50
2018-09-13T16:05:16.676Z,17.30
2018-09-13T16:07:45.915Z,17.30
2018-09-13T16:10:14.278Z,17.30
2018-09-13T16:12:42.807Z,17.20
2018-09-13T16:15:11.123Z,17.20
2018-09-13T16:17:39.737Z,17.30
2018-09-13T16:20:08.284Z,17.30
2018-09-13T16:22:36.763Z,17.40
2018-09-13T16:25:05.337Z,17.50
2018-09-13T16:27:33.693Z,17.50
2018-09-13T16:30:02.127Z,17.50
2018-09-13T16:32:33.003Z,17.50
2018-09-13T16:35:01.465Z,17.50
2018-09-13T16:37:35.084Z,17.40
2018-09-13T16:41:12.472Z,17.40
2018-09-13T16:43:46.090Z,17.20
2018-09-13T16:46:19.847Z,17.10
2018-09-13T16:48:48.261Z,17.00
2018-09-13T16:51:16.579Z,17.00
2018-09-13T16:53:44.883Z,17.00
2018-09-13T16:56:13.279Z,17.10
2018-09-13T16:58:41.950Z,17.10
2018-09-13T17:01:10.324Z,17.10
2018-09-13T17:03:38.740Z,17.10
2018-09-13T17:06:07.108Z,17.10
2018-09-13T17:08:35.487Z,17.10
2018-09-13T17:11:04.024Z,17.00
2018-09-13T17:13:32.632Z,16.90
2018-09-13T17:16:01.040Z,16.80
2018-09-13T17:18:29.444Z,16.80
2018-09-13T17:20:57.798Z,16.70
2018-09-13T17:23:26.208Z,16.50
2018-09-13T17:25:54.669Z,16.50
2018-09-13T17:28:23.095Z,16.40
2018-09-13T17:30:51.513Z,16.30
2018-09-13T17:33:19.920Z,16.30
2018-09-13T17:35:48.283Z,16.20
2018-09-13T17:38:17.432Z,16.10
2018-09-13T17:40:46.522Z,16.10
2018-09-13T17:43:15.197Z,16.00
2018-09-13T17:45:43.596Z,15.90
2018-09-13T17:48:11.931Z,15.80
2018-09-13T17:50:40.375Z,15.70
2018-09-13T17:53:09.726Z,15.50
2018-09-13T17:55:38.599Z,15.40
2018-09-13T17:58:07.670Z,15.40
2018-09-13T18:00:36.488Z,15.30
2018-09-13T18:03:05.568Z,15.10
2018-09-13T18:05:34.151Z,15.00
2018-09-13T18:08:03.503Z,15.00
2018-09-13T18:10:31.833Z,14.90
2018-09-13T18:13:00.182Z,14.90
2018-09-13T18:15:28.580Z,14.90
2018-09-13T18:17:56.904Z,14.80
2018-09-13T18:20:25.341Z,14.80
2018-09-13T18:22:53.846Z,14.70
2018-09-13T18:25:22.403Z,14.70
2018-09-13T18:27:50.751Z,14.60
2018-09-13T18:30:19.096Z,14.50
2018-09-13T18:32:47.412Z,14.40
2018-09-13T18:35:15.835Z,14.40
2018-09-13T18:37:44.174Z,14.30
2018-09-13T18:40:12.602Z,14.20
2018-09-13T18:42:40.993Z,14.20
2018-09-13T18:45:09.517Z,14.10
2018-09-13T18:47:37.998Z,14.00
2018-09-13T18:50:06.666Z,14.00
2018-09-13T18:55:28.325Z,13.80
2018-09-13T18:57:56.964Z,13.60
2018-09-13T19:00:25.646Z,13.50
2018-09-13T19:02:54.243Z,13.50
2018-09-13T19:05:23.236Z,13.40
2018-09-13T19:07:51.800Z,13.30
2018-09-13T19:10:20.298Z,13.20
2018-09-13T19:12:48.828Z,13.20
2018-09-13T19:15:17.268Z,13.10
2018-09-13T19:17:45.676Z,13.00
2018-09-13T19:20:14.303Z,13.00
2018-09-13T19:22:42.925Z,12.90
2018-09-13T19:25:11.536Z,12.80
2018-09-13T19:27:40.840Z,12.70
2018-09-13T19:30:10.783Z,12.70
2018-09-13T19:32:41.176Z,12.60
2018-09-13T19:35:09.631Z,12.60
2018-09-13T19:37:38.269Z,12.50
2018-09-13T19:40:07.092Z,12.50
2018-09-13T19:42:36.585Z,12.40
2018-09-13T19:45:05.145Z,12.40
2018-09-13T19:47:33.559Z,12.30
2018-09-13T19:50:01.974Z,12.30
2018-09-13T19:52:30.376Z,12.20
2018-09-13T19:54:58.730Z,12.10
2018-09-13T19:57:27.154Z,12.10
2018-09-13T19:59:56.763Z,12.00
2018-09-13T20:02:25.165Z,11.90
2018-09-13T20:04:53.590Z,11.80
2018-09-13T20:07:22.119Z,11.80
2018-09-13T20:09:50.540Z,11.70
2018-09-13T20:12:19.102Z,11.70
2018-09-13T20:14:47.394Z,11.60
2018-09-13T20:17:15.759Z,11.60
2018-09-13T20:19:44.176Z,11.60
2018-09-13T20:22:13.199Z,11.50
2018-09-13T20:24:41.605Z,11.50
2018-09-13T20:27:10.217Z,11.40
2018-09-13T20:29:38.596Z,11.40
2018-09-13T20:32:07.026Z,11.30
2018-09-13T20:34:35.466Z,11.30
2018-09-13T20:37:03.912Z,11.20
2018-09-13T20:39:32.280Z,11.20
2018-09-13T20:42:00.610Z,11.20
2018-09-13T20:44:28.967Z,11.10
2018-09-13T20:46:57.413Z,11.10
2018-09-13T20:49:25.824Z,11.00
2018-09-13T20:51:54.281Z,11.00
2018-09-13T20:54:22.641Z,10.90
2018-09-13T20:56:50.962Z,10.90
2018-09-13T20:59:19.441Z,10.90
2018-09-13T21:01:47.768Z,10.80
2018-09-13T21:04:16.098Z,10.80
2018-09-13T21:06:44.414Z,10.70
2018-09-13T21:09:12.968Z,10.70
2018-09-13T21:11:41.459Z,10.60
2018-09-13T21:14:09.760Z,10.60
2018-09-13T21:16:38.105Z,10.50
2018-09-13T21:19:06.628Z,10.50
2018-09-13T21:21:35.274Z,10.40
2018-09-13T21:24:03.680Z,10.40
2018-09-13T21:26:31.956Z,10.30
2018-09-13T21:29:00.292Z,10.30
2018-09-13T21:31:28.652Z,10.30
2018-09-13T21:33:57.042Z,10.20
2018-09-13T21:36:25.513Z,10.20
2018-09-13T21:38:53.894Z,10.20
2018-09-13T21:41:22.224Z,10.10
2018-09-13T21:43:50.748Z,10.10
2018-09-13T21:46:19.082Z,10.00
2018-09-13T21:48:47.643Z,10.00
2018-09-13T21:51:16.021Z,10.00
2018-09-13T21:53:44.468Z,9.90
2018-09-13T21:56:12.887Z,9.90
2018-09-13T21:58:41.275Z,9.90
2018-09-13T22:01:09.678Z,9.90
2018-09-13T22:03:38.024Z,9.90
2018-09-13T22:06:07.730Z,9.90
2018-09-13T22:08:38.364Z,9.80
2018-09-13T22:11:06.850Z,9.80
2018-09-13T22:13:35.196Z,9.80
2018-09-13T22:16:03.664Z,9.70
2018-09-13T22:18:32.104Z,9.60
2018-09-13T22:21:00.486Z,9.60
2018-09-13T22:23:28.803Z,9.50
2018-09-13T22:25:57.107Z,9.50
2018-09-13T22:28:25.490Z,9.50
2018-09-13T22:30:53.837Z,9.40
2018-09-13T22:33:22.363Z,9.40
2018-09-13T22:35:50.695Z,9.40
2018-09-13T22:38:20.992Z,9.40
2018-09-13T22:40:49.310Z,9.30
2018-09-13T22:43:17.621Z,9.30
2018-09-13T22:45:47.599Z,9.30
2018-09-13T22:48:27.437Z,9.20
2018-09-13T22:50:55.999Z,9.20
2018-09-13T22:53:24.557Z,9.20
2018-09-13T22:55:54.098Z,9.20
2018-09-13T22:58:22.455Z,9.10
2018-09-13T23:00:57.306Z,9.10
2018-09-13T23:03:27.325Z,9.10
2018-09-13T23:05:56.830Z,9.10
2018-09-13T23:11:12.919Z,9.00
2018-09-13T23:13:41.443Z,8.90
2018-09-13T23:16:12.367Z,8.90
2018-09-13T23:18:40.782Z,8.90
2018-09-13T23:21:09.113Z,8.80
2018-09-13T23:23:37.427Z,8.80
2018-09-13T23:26:05.955Z,8.80
2018-09-13T23:28:34.291Z,8.80
2018-09-13T23:31:02.654Z,8.80
2018-09-13T23:33:31.005Z,8.80
2018-09-13T23:35:59.759Z,8.80
2018-09-13T23:38:28.385Z,8.70
2018-09-13T23:40:56.684Z,8.70
2018-09-13T23:43:26.462Z,8.70
2018-09-13T23:45:57.476Z,8.70
2018-09-13T23:48:26.683Z,8.60
2018-09-13T23:50:55.719Z,8.60
2018-09-13T23:53:24.192Z,8.60
2018-09-13T23:55:54.696Z,8.60
2018-09-13T23:58:23.568Z,8.60
